sensor_id;sensor_type;location;lat;lon;timestamp;pressure;altitude;pressure_sealevel;temperature
78369;BMP280;71113;43.092;-89.268;2024-02-26T00:00:00;97280.78;;;17.82
78369;BMP280;71113;43.092;-89.268;2024-02-26T00:02:26;97281.88;;;17.81
78369;BMP280;71113;43.092;-89.268;2024-02-26T00:04:52;97282.97;;;17.80
78369;BMP280;71113;43.092;-89.268;2024-02-26T00:07:17;97286.25;;;17.77
78369;BMP280;71113;43.092;-89.268;2024-02-26T00:09:43;97288.59;;;17.79
78369;BMP280;71113;43.092;-89.268;2024-02-26T00:12:09;97298.69;;;17.77
78369;BMP280;71113;43.092;-89.268;2024-02-26T00:14:35;97299.78;;;17.76
78369;BMP280;71113;43.092;-89.268;2024-02-26T00:17:02;97305.81;;;17.76
78369;BMP280;71113;43.092;-89.268;2024-02-26T00:19:28;97321.25;;;17.74
78369;BMP280;71113;43.092;-89.268;2024-02-26T00:21:54;97311.78;;;17.73
78369;BMP280;71113;43.092;-89.268;2024-02-26T00:24:21;97320.78;;;17.72
78369;BMP280;71113;43.092;-89.268;2024-02-26T00:26:47;97321.16;;;17.71
78369;BMP280;71113;43.092;-89.268;2024-02-26T00:29:18;97330.94;;;17.70
78369;BMP280;71113;43.092;-89.268;2024-02-26T00:31:44;97338.03;;;17.70
78369;BMP280;71113;43.092;-89.268;2024-02-26T00:34:10;97335.75;;;17.68
78369;BMP280;71113;43.092;-89.268;2024-02-26T00:36:36;97345.53;;;17.68
78369;BMP280;71113;43.092;-89.268;2024-02-26T00:39:22;97347.72;;;17.65
78369;BMP280;71113;43.092;-89.268;2024-02-26T00:41:48;97360.13;;;17.65
78369;BMP280;71113;43.092;-89.268;2024-02-26T00:44:13;97373.31;;;17.65
78369;BMP280;71113;43.092;-89.268;2024-02-26T00:46:39;97370.25;;;17.63
78369;BMP280;71113;43.092;-89.268;2024-02-26T00:49:05;97376.63;;;17.62
78369;BMP280;71113;43.092;-89.268;2024-02-26T00:51:31;97380.34;;;17.61
78369;BMP280;71113;43.092;-89.268;2024-02-26T00:53:57;97383.09;;;17.64
78369;BMP280;71113;43.092;-89.268;2024-02-26T00:56:23;97387.63;;;17.64
78369;BMP280;71113;43.092;-89.268;2024-02-26T00:58:49;97389.91;;;17.65
78369;BMP280;71113;43.092;-89.268;2024-02-26T01:01:15;97394.44;;;17.65
78369;BMP280;71113;43.092;-89.268;2024-02-26T01:03:41;97404.97;;;17.65
78369;BMP280;71113;43.092;-89.268;2024-02-26T01:06:07;97404.19;;;17.64
78369;BMP280;71113;43.092;-89.268;2024-02-26T01:08:33;97405.75;;;17.65
78369;BMP280;71113;43.092;-89.268;2024-02-26T01:11:01;97405.75;;;17.65
78369;BMP280;71113;43.092;-89.268;2024-02-26T01:13:27;97406.50;;;17.66
78369;BMP280;71113;43.092;-89.268;2024-02-26T01:15:53;97422.00;;;17.68
78369;BMP280;71113;43.092;-89.268;2024-02-26T01:18:19;97417.06;;;17.66
78369;BMP280;71113;43.092;-89.268;2024-02-26T01:20:45;97413.66;;;17.65
78369;BMP280;71113;43.092;-89.268;2024-02-26T01:23:12;97424.53;;;17.64
78369;BMP280;71113;43.092;-89.268;2024-02-26T01:25:38;97442.22;;;17.63
78369;BMP280;71113;43.092;-89.268;2024-02-26T01:28:05;97437.28;;;17.62
78369;BMP280;71113;43.092;-89.268;2024-02-26T01:30:31;97443.63;;;17.61
78369;BMP280;71113;43.092;-89.268;2024-02-26T01:32:57;97434.97;;;17.60
78369;BMP280;71113;43.092;-89.268;2024-02-26T01:35:23;97441.75;;;17.61
78369;BMP280;71113;43.092;-89.268;2024-02-26T01:37:49;97450.03;;;17.60
78369;BMP280;71113;43.092;-89.268;2024-02-26T01:40:15;97457.94;;;17.60
78369;BMP280;71113;43.092;-89.268;2024-02-26T01:42:45;97468.00;;;17.58
78369;BMP280;71113;43.092;-89.268;2024-02-26T01:45:15;97469.47;;;17.55
78369;BMP280;71113;43.092;-89.268;2024-02-26T01:47:47;97472.84;;;17.56
78369;BMP280;71113;43.092;-89.268;2024-02-26T01:50:13;97463.41;;;17.55
78369;BMP280;71113;43.092;-89.268;2024-02-26T01:52:39;97460.03;;;17.54
78369;BMP280;71113;43.092;-89.268;2024-02-26T01:55:06;97464.81;;;17.52
78369;BMP280;71113;43.092;-89.268;2024-02-26T01:57:33;97463.72;;;17.53
78369;BMP280;71113;43.092;-89.268;2024-02-26T02:00:00;97475.38;;;17.52
78369;BMP280;71113;43.092;-89.268;2024-02-26T02:02:26;97454.59;;;17.51
78369;BMP280;71113;43.092;-89.268;2024-02-26T02:04:52;97469.66;;;17.50
78369;BMP280;71113;43.092;-89.268;2024-02-26T02:07:19;97476.03;;;17.49
78369;BMP280;71113;43.092;-89.268;2024-02-26T02:09:45;97476.03;;;17.49
78369;BMP280;71113;43.092;-89.268;2024-02-26T02:12:12;97470.31;;;17.47
78369;BMP280;71113;43.092;-89.268;2024-02-26T02:14:38;97472.19;;;17.47
78369;BMP280;71113;43.092;-89.268;2024-02-26T02:17:04;97466.91;;;17.47
78369;BMP280;71113;43.092;-89.268;2024-02-26T02:19:30;97466.09;;;17.46
78369;BMP280;71113;43.092;-89.268;2024-02-26T02:21:56;97474.38;;;17.45
78369;BMP280;71113;43.092;-89.268;2024-02-26T02:24:22;97470.97;;;17.44
78369;BMP280;71113;43.092;-89.268;2024-02-26T02:26:48;97477.34;;;17.43
78369;BMP280;71113;43.092;-89.268;2024-02-26T02:29:14;97481.84;;;17.43
78369;BMP280;71113;43.092;-89.268;2024-02-26T02:31:41;97482.13;;;17.41
78369;BMP280;71113;43.092;-89.268;2024-02-26T02:34:08;97496.09;;;17.42
78369;BMP280;71113;43.092;-89.268;2024-02-26T02:36:35;97496.09;;;17.42
78369;BMP280;71113;43.092;-89.268;2024-02-26T02:39:01;97497.97;;;17.41
78369;BMP280;71113;43.092;-89.268;2024-02-26T02:41:27;97507.75;;;17.41
78369;BMP280;71113;43.092;-89.268;2024-02-26T02:43:55;97500.94;;;17.40
78369;BMP280;71113;43.092;-89.268;2024-02-26T02:46:21;97508.09;;;17.39
78369;BMP280;71113;43.092;-89.268;2024-02-26T02:48:47;97510.59;;;17.36
78369;BMP280;71113;43.092;-89.268;2024-02-26T02:51:13;97507.19;;;17.35
78369;BMP280;71113;43.092;-89.268;2024-02-26T02:53:39;97513.25;;;17.36
78369;BMP280;71113;43.092;-89.268;2024-02-26T02:56:05;97526.72;;;17.34
78369;BMP280;71113;43.092;-89.268;2024-02-26T02:58:31;97527.03;;;17.32
78369;BMP280;71113;43.092;-89.268;2024-02-26T03:00:57;97531.53;;;17.32
78369;BMP280;71113;43.092;-89.268;2024-02-26T03:03:25;97531.88;;;17.30
78369;BMP280;71113;43.092;-89.268;2024-02-26T03:05:54;97539.78;;;17.30
78369;BMP280;71113;43.092;-89.268;2024-02-26T03:08:20;97542.41;;;17.30
78369;BMP280;71113;43.092;-89.268;2024-02-26T03:10:46;97552.97;;;17.30
78369;BMP280;71113;43.092;-89.268;2024-02-26T03:13:32;97547.69;;;17.30
78369;BMP280;71113;43.092;-89.268;2024-02-26T03:15:58;97547.25;;;17.28
78369;BMP280;71113;43.092;-89.268;2024-02-26T03:18:24;97549.09;;;17.28
78369;BMP280;71113;43.092;-89.268;2024-02-26T03:20:50;97552.03;;;17.26
78369;BMP280;71113;43.092;-89.268;2024-02-26T03:23:16;97553.59;;;17.27
78369;BMP280;71113;43.092;-89.268;2024-02-26T03:25:44;97560.31;;;17.25
78369;BMP280;71113;43.092;-89.268;2024-02-26T03:28:12;97557.66;;;17.25
78369;BMP280;71113;43.092;-89.268;2024-02-26T03:30:38;97567.72;;;17.23
78369;BMP280;71113;43.092;-89.268;2024-02-26T03:33:04;97572.72;;;17.24
78369;BMP280;71113;43.092;-89.268;2024-02-26T03:35:30;97575.34;;;17.24
78369;BMP280;71113;43.092;-89.268;2024-02-26T03:37:56;97578.75;;;17.25
78369;BMP280;71113;43.092;-89.268;2024-02-26T03:40:22;97579.84;;;17.24
78369;BMP280;71113;43.092;-89.268;2024-02-26T03:42:48;97582.00;;;17.22
78369;BMP280;71113;43.092;-89.268;2024-02-26T03:45:14;97578.59;;;17.21
78369;BMP280;71113;43.092;-89.268;2024-02-26T03:47:40;97583.53;;;17.23
78369;BMP280;71113;43.092;-89.268;2024-02-26T03:50:07;97587.63;;;17.20
78369;BMP280;71113;43.092;-89.268;2024-02-26T03:52:33;97588.69;;;17.19
78369;BMP280;71113;43.092;-89.268;2024-02-26T03:54:59;97595.06;;;17.18
78369;BMP280;71113;43.092;-89.268;2024-02-26T03:57:25;97601.09;;;17.19
78369;BMP280;71113;43.092;-89.268;2024-02-26T03:59:51;97594.28;;;17.18
78369;BMP280;71113;43.092;-89.268;2024-02-26T04:02:17;97605.16;;;17.16
78369;BMP280;71113;43.092;-89.268;2024-02-26T04:04:46;97600.66;;;17.17
78369;BMP280;71113;43.092;-89.268;2024-02-26T04:07:13;97599.09;;;17.16
78369;BMP280;71113;43.092;-89.268;2024-02-26T04:09:39;97599.09;;;17.16
78369;BMP280;71113;43.092;-89.268;2024-02-26T04:12:05;97609.66;;;17.16
78369;BMP280;71113;43.092;-89.268;2024-02-26T04:14:31;97604.69;;;17.14
78369;BMP280;71113;43.092;-89.268;2024-02-26T04:16:57;97609.19;;;17.14
78369;BMP280;71113;43.092;-89.268;2024-02-26T04:19:23;97617.09;;;17.14
78369;BMP280;71113;43.092;-89.268;2024-02-26T04:21:49;97617.88;;;17.14
78369;BMP280;71113;43.092;-89.268;2024-02-26T04:24:15;97621.59;;;17.13
78369;BMP280;71113;43.092;-89.268;2024-02-26T04:26:41;97624.53;;;17.12
78369;BMP280;71113;43.092;-89.268;2024-02-26T04:29:07;97622.25;;;17.10
78369;BMP280;71113;43.092;-89.268;2024-02-26T04:31:33;97628.63;;;17.09
78369;BMP280;71113;43.092;-89.268;2024-02-26T04:33:59;97628.28;;;17.11
78369;BMP280;71113;43.092;-89.268;2024-02-26T04:36:25;97630.59;;;17.12
78369;BMP280;71113;43.092;-89.268;2024-02-26T04:38:51;97630.94;;;17.11
78369;BMP280;71113;43.092;-89.268;2024-02-26T04:41:20;97636.19;;;17.11
78369;BMP280;71113;43.092;-89.268;2024-02-26T04:43:46;97637.28;;;17.10
78369;BMP280;71113;43.092;-89.268;2024-02-26T04:46:12;97628.13;;;17.07
78369;BMP280;71113;43.092;-89.268;2024-02-26T04:48:38;97638.69;;;17.07
78369;BMP280;71113;43.092;-89.268;2024-02-26T04:51:04;97640.53;;;17.07
78369;BMP280;71113;43.092;-89.268;2024-02-26T04:53:31;97638.69;;;17.07
78369;BMP280;71113;43.092;-89.268;2024-02-26T04:55:57;97632.63;;;17.07
78369;BMP280;71113;43.092;-89.268;2024-02-26T04:58:23;97634.03;;;17.04
78369;BMP280;71113;43.092;-89.268;2024-02-26T05:00:49;97637.47;;;17.04
78369;BMP280;71113;43.092;-89.268;2024-02-26T05:03:15;97638.53;;;17.03
78369;BMP280;71113;43.092;-89.268;2024-02-26T05:05:44;97644.59;;;17.04
78369;BMP280;71113;43.092;-89.268;2024-02-26T05:08:11;97637.78;;;17.03
78369;BMP280;71113;43.092;-89.268;2024-02-26T05:10:37;97646.44;;;17.03
78369;BMP280;71113;43.092;-89.268;2024-02-26T05:13:06;97650.19;;;17.02
78369;BMP280;71113;43.092;-89.268;2024-02-26T05:15:32;97645.22;;;17.01
78369;BMP280;71113;43.092;-89.268;2024-02-26T05:17:58;97646.78;;;17.02
78369;BMP280;71113;43.092;-89.268;2024-02-26T05:20:25;97645.22;;;17.01
78369;BMP280;71113;43.092;-89.268;2024-02-26T05:22:51;97650.03;;;16.99
78369;BMP280;71113;43.092;-89.268;2024-02-26T05:25:17;97644.78;;;16.99
78369;BMP280;71113;43.092;-89.268;2024-02-26T05:27:44;97645.53;;;16.99
78369;BMP280;71113;43.092;-89.268;2024-02-26T05:30:10;97645.09;;;16.97
78369;BMP280;71113;43.092;-89.268;2024-02-26T05:32:36;97636.44;;;16.97
78369;BMP280;71113;43.092;-89.268;2024-02-26T05:35:03;97635.66;;;16.96
78369;BMP280;71113;43.092;-89.268;2024-02-26T05:37:29;97640.59;;;16.98
78369;BMP280;71113;43.092;-89.268;2024-02-26T05:39:55;97643.56;;;16.96
78369;BMP280;71113;43.092;-89.268;2024-02-26T05:42:21;97641.69;;;16.97
78369;BMP280;71113;43.092;-89.268;2024-02-26T05:44:47;97641.97;;;16.95
78369;BMP280;71113;43.092;-89.268;2024-02-26T05:47:15;97648.03;;;16.96
78369;BMP280;71113;43.092;-89.268;2024-02-26T05:49:41;97643.88;;;16.95
78369;BMP280;71113;43.092;-89.268;2024-02-26T05:52:07;97639.69;;;16.94
78369;BMP280;71113;43.092;-89.268;2024-02-26T05:54:33;97636.28;;;16.93
78369;BMP280;71113;43.092;-89.268;2024-02-26T05:56:59;97642.34;;;16.94
78369;BMP280;71113;43.092;-89.268;2024-02-26T05:59:25;97632.88;;;16.93
78369;BMP280;71113;43.092;-89.268;2024-02-26T06:01:51;97636.59;;;16.92
78369;BMP280;71113;43.092;-89.268;2024-02-26T06:04:17;97624.19;;;16.92
78369;BMP280;71113;43.092;-89.268;2024-02-26T06:06:44;97629.78;;;16.91
78369;BMP280;71113;43.092;-89.268;2024-02-26T06:09:13;97629.00;;;16.90
78369;BMP280;71113;43.092;-89.268;2024-02-26T06:11:39;97627.13;;;16.91
78369;BMP280;71113;43.092;-89.268;2024-02-26T06:14:05;97626.72;;;16.89
78369;BMP280;71113;43.092;-89.268;2024-02-26T06:16:31;97637.25;;;16.89
78369;BMP280;71113;43.092;-89.268;2024-02-26T06:18:57;97644.06;;;16.90
78369;BMP280;71113;43.092;-89.268;2024-02-26T06:21:23;97643.28;;;16.89
78369;BMP280;71113;43.092;-89.268;2024-02-26T06:23:49;97650.44;;;16.89
78369;BMP280;71113;43.092;-89.268;2024-02-26T06:26:16;97650.72;;;16.87
78369;BMP280;71113;43.092;-89.268;2024-02-26T06:28:42;97650.72;;;16.87
78369;BMP280;71113;43.092;-89.268;2024-02-26T06:31:07;97646.53;;;16.86
78369;BMP280;71113;43.092;-89.268;2024-02-26T06:33:33;97643.13;;;16.86
78369;BMP280;71113;43.092;-89.268;2024-02-26T06:35:59;97648.41;;;16.86
78369;BMP280;71113;43.092;-89.268;2024-02-26T06:38:25;97644.22;;;16.85
78369;BMP280;71113;43.092;-89.268;2024-02-26T06:40:51;97651.34;;;16.84
78369;BMP280;71113;43.092;-89.268;2024-02-26T06:43:17;97652.13;;;16.85
78369;BMP280;71113;43.092;-89.268;2024-02-26T06:45:43;97654.00;;;16.84
78369;BMP280;71113;43.092;-89.268;2024-02-26T06:48:08;97657.41;;;16.85
78369;BMP280;71113;43.092;-89.268;2024-02-26T06:50:34;97644.53;;;16.83
78369;BMP280;71113;43.092;-89.268;2024-02-26T06:53:00;97643.00;;;16.82
78369;BMP280;71113;43.092;-89.268;2024-02-26T06:55:26;97647.50;;;16.82
78369;BMP280;71113;43.092;-89.268;2024-02-26T06:57:52;97645.94;;;16.81
78369;BMP280;71113;43.092;-89.268;2024-02-26T07:00:18;97652.00;;;16.81
78369;BMP280;71113;43.092;-89.268;2024-02-26T07:02:44;97652.78;;;16.82
78369;BMP280;71113;43.092;-89.268;2024-02-26T07:05:10;97652.31;;;16.80
78369;BMP280;71113;43.092;-89.268;2024-02-26T07:07:36;97648.13;;;16.79
78369;BMP280;71113;43.092;-89.268;2024-02-26T07:10:02;97641.78;;;16.80
78369;BMP280;71113;43.092;-89.268;2024-02-26T07:12:30;97642.88;;;16.79
78369;BMP280;71113;43.092;-89.268;2024-02-26T07:14:56;97644.72;;;16.78
78369;BMP280;71113;43.092;-89.268;2024-02-26T07:17:21;97640.25;;;16.79
78369;BMP280;71113;43.092;-89.268;2024-02-26T07:19:47;97642.88;;;16.79
78369;BMP280;71113;43.092;-89.268;2024-02-26T07:22:13;97638.69;;;16.78
78369;BMP280;71113;43.092;-89.268;2024-02-26T07:24:40;97636.84;;;16.78
78369;BMP280;71113;43.092;-89.268;2024-02-26T07:27:06;97637.94;;;16.77
78369;BMP280;71113;43.092;-89.268;2024-02-26T07:29:32;97641.31;;;16.78
78369;BMP280;71113;43.092;-89.268;2024-02-26T07:31:59;97640.06;;;16.75
78369;BMP280;71113;43.092;-89.268;2024-02-26T07:34:25;97645.34;;;16.75
78369;BMP280;71113;43.092;-89.268;2024-02-26T07:36:55;97647.97;;;16.75
78369;BMP280;71113;43.092;-89.268;2024-02-26T07:39:22;97649.53;;;16.76
78369;BMP280;71113;43.092;-89.268;2024-02-26T07:41:48;97649.88;;;16.74
78369;BMP280;71113;43.092;-89.268;2024-02-26T07:44:17;97640.06;;;16.75
78369;BMP280;71113;43.092;-89.268;2024-02-26T07:46:43;97642.72;;;16.75
78369;BMP280;71113;43.092;-89.268;2024-02-26T07:49:09;97643.06;;;16.73
78369;BMP280;71113;43.092;-89.268;2024-02-26T07:51:35;97637.00;;;16.73
78369;BMP280;71113;43.092;-89.268;2024-02-26T07:54:00;97635.16;;;16.73
78369;BMP280;71113;43.092;-89.268;2024-02-26T07:56:26;97633.59;;;16.72
78369;BMP280;71113;43.092;-89.268;2024-02-26T07:58:52;97638.09;;;16.72
78369;BMP280;71113;43.092;-89.268;2024-02-26T08:01:18;97630.19;;;16.72
78369;BMP280;71113;43.092;-89.268;2024-02-26T08:03:44;97621.50;;;16.71
78369;BMP280;71113;43.092;-89.268;2024-02-26T08:06:10;97617.34;;;16.70
78369;BMP280;71113;43.092;-89.268;2024-02-26T08:08:36;97619.50;;;16.68
78369;BMP280;71113;43.092;-89.268;2024-02-26T08:11:02;97614.25;;;16.68
78369;BMP280;71113;43.092;-89.268;2024-02-26T08:13:28;97611.63;;;16.68
78369;BMP280;71113;43.092;-89.268;2024-02-26T08:15:54;97622.16;;;16.68
78369;BMP280;71113;43.092;-89.268;2024-02-26T08:18:20;97622.91;;;16.69
78369;BMP280;71113;43.092;-89.268;2024-02-26T08:20:46;97623.25;;;16.67
78369;BMP280;71113;43.092;-89.268;2024-02-26T08:23:14;97620.59;;;16.67
78369;BMP280;71113;43.092;-89.268;2024-02-26T08:25:40;97614.56;;;16.67
78369;BMP280;71113;43.092;-89.268;2024-02-26T08:28:06;97612.22;;;16.65
78369;BMP280;71113;43.092;-89.268;2024-02-26T08:30:32;97615.97;;;16.64
78369;BMP280;71113;43.092;-89.268;2024-02-26T08:32:59;97607.63;;;16.62
78369;BMP280;71113;43.092;-89.268;2024-02-26T08:35:25;97605.00;;;16.62
78369;BMP280;71113;43.092;-89.268;2024-02-26T08:37:51;97609.94;;;16.64
78369;BMP280;71113;43.092;-89.268;2024-02-26T08:40:17;97609.94;;;16.64
78369;BMP280;71113;43.092;-89.268;2024-02-26T08:42:43;97606.53;;;16.63
78369;BMP280;71113;43.092;-89.268;2024-02-26T08:45:09;97611.81;;;16.63
78369;BMP280;71113;43.092;-89.268;2024-02-26T08:47:35;97611.81;;;16.63
78369;BMP280;71113;43.092;-89.268;2024-02-26T08:50:21;97609.16;;;16.63
78369;BMP280;71113;43.092;-89.268;2024-02-26T08:52:47;97612.13;;;16.62
78369;BMP280;71113;43.092;-89.268;2024-02-26T08:55:16;97610.56;;;16.61
78369;BMP280;71113;43.092;-89.268;2024-02-26T08:57:42;97602.38;;;16.62
78369;BMP280;71113;43.092;-89.268;2024-02-26T09:00:09;97605.59;;;16.59
78369;BMP280;71113;43.092;-89.268;2024-02-26T09:02:35;97596.97;;;16.59
78369;BMP280;71113;43.092;-89.268;2024-02-26T09:05:00;97594.34;;;16.59
78369;BMP280;71113;43.092;-89.268;2024-02-26T09:07:26;97598.81;;;16.58
78369;BMP280;71113;43.092;-89.268;2024-02-26T09:09:52;97597.25;;;16.57
78369;BMP280;71113;43.092;-89.268;2024-02-26T09:12:18;97604.09;;;16.58
78369;BMP280;71113;43.092;-89.268;2024-02-26T09:14:45;97599.88;;;16.57
78369;BMP280;71113;43.092;-89.268;2024-02-26T09:17:11;97593.84;;;16.57
78369;BMP280;71113;43.092;-89.268;2024-02-26T09:19:37;97593.09;;;16.56
78369;BMP280;71113;43.092;-89.268;2024-02-26T09:22:03;97592.31;;;16.56
78369;BMP280;71113;43.092;-89.268;2024-02-26T09:24:29;97594.16;;;16.55
78369;BMP280;71113;43.092;-89.268;2024-02-26T09:26:55;97595.25;;;16.54
78369;BMP280;71113;43.092;-89.268;2024-02-26T09:29:21;97600.84;;;16.53
78369;BMP280;71113;43.092;-89.268;2024-02-26T09:31:47;97614.00;;;16.53
78369;BMP280;71113;43.092;-89.268;2024-02-26T09:34:14;97613.22;;;16.52
78369;BMP280;71113;43.092;-89.268;2024-02-26T09:36:40;97611.38;;;16.53
78369;BMP280;71113;43.092;-89.268;2024-02-26T09:39:06;97614.00;;;16.53
78369;BMP280;71113;43.092;-89.268;2024-02-26T09:41:36;97607.19;;;16.52
78369;BMP280;71113;43.092;-89.268;2024-02-26T09:44:04;97609.84;;;16.52
78369;BMP280;71113;43.092;-89.268;2024-02-26T09:46:30;97605.66;;;16.51
78369;BMP280;71113;43.092;-89.268;2024-02-26T09:48:57;97606.44;;;16.51
78369;BMP280;71113;43.092;-89.268;2024-02-26T09:51:23;97609.06;;;16.51
78369;BMP280;71113;43.092;-89.268;2024-02-26T09:53:52;97610.16;;;16.50
78369;BMP280;71113;43.092;-89.268;2024-02-26T09:56:19;97603.31;;;16.49
78369;BMP280;71113;43.092;-89.268;2024-02-26T09:58:45;97600.25;;;16.47
78369;BMP280;71113;43.092;-89.268;2024-02-26T10:01:18;97602.13;;;16.47
78369;BMP280;71113;43.092;-89.268;2024-02-26T10:03:44;97615.28;;;16.47
78369;BMP280;71113;43.092;-89.268;2024-02-26T10:06:13;97612.94;;;16.45
78369;BMP280;71113;43.092;-89.268;2024-02-26T10:08:40;97606.59;;;16.46
78369;BMP280;71113;43.092;-89.268;2024-02-26T10:11:10;97609.22;;;16.46
78369;BMP280;71113;43.092;-89.268;2024-02-26T10:13:36;97605.81;;;16.45
78369;BMP280;71113;43.092;-89.268;2024-02-26T10:16:03;97609.53;;;16.44
78369;BMP280;71113;43.092;-89.268;2024-02-26T10:18:50;97602.41;;;16.45
78369;BMP280;71113;43.092;-89.268;2024-02-26T10:21:17;97598.22;;;16.44
78369;BMP280;71113;43.092;-89.268;2024-02-26T10:23:44;97603.84;;;16.42
78369;BMP280;71113;43.092;-89.268;2024-02-26T10:26:12;97607.25;;;16.43
78369;BMP280;71113;43.092;-89.268;2024-02-26T10:28:39;97600.41;;;16.42
78369;BMP280;71113;43.092;-89.268;2024-02-26T10:31:06;97597.00;;;16.41
78369;BMP280;71113;43.092;-89.268;2024-02-26T10:33:36;97590.97;;;16.41
78369;BMP280;71113;43.092;-89.268;2024-02-26T10:36:06;97602.28;;;16.41
78369;BMP280;71113;43.092;-89.268;2024-02-26T10:38:34;97606.00;;;16.40
78369;BMP280;71113;43.092;-89.268;2024-02-26T10:41:07;97601.50;;;16.41
78369;BMP280;71113;43.092;-89.268;2024-02-26T10:43:34;97590.97;;;16.41
78369;BMP280;71113;43.092;-89.268;2024-02-26T10:46:00;97594.69;;;16.40
78369;BMP280;71113;43.092;-89.268;2024-02-26T10:48:26;97590.53;;;16.39
78369;BMP280;71113;43.092;-89.268;2024-02-26T10:50:52;97597.63;;;16.38
78369;BMP280;71113;43.092;-89.268;2024-02-26T10:53:21;97588.66;;;16.39
78369;BMP280;71113;43.092;-89.268;2024-02-26T10:56:14;97595.34;;;16.37
78369;BMP280;71113;43.092;-89.268;2024-02-26T10:58:42;97595.34;;;16.37
78369;BMP280;71113;43.092;-89.268;2024-02-26T11:01:09;97581.72;;;16.35
78369;BMP280;71113;43.092;-89.268;2024-02-26T11:03:36;97582.00;;;16.33
78369;BMP280;71113;43.092;-89.268;2024-02-26T11:06:03;97581.25;;;16.33
78369;BMP280;71113;43.092;-89.268;2024-02-26T11:08:30;97590.69;;;16.34
78369;BMP280;71113;43.092;-89.268;2024-02-26T11:10:58;97586.50;;;16.33
78369;BMP280;71113;43.092;-89.268;2024-02-26T11:13:27;97592.88;;;16.32
78369;BMP280;71113;43.092;-89.268;2024-02-26T11:15:56;97591.03;;;16.32
78369;BMP280;71113;43.092;-89.268;2024-02-26T11:18:23;97592.88;;;16.32
78369;BMP280;71113;43.092;-89.268;2024-02-26T11:20:54;97589.78;;;16.30
78369;BMP280;71113;43.092;-89.268;2024-02-26T11:23:23;97586.84;;;16.31
78369;BMP280;71113;43.092;-89.268;2024-02-26T11:25:50;97593.03;;;16.35
78369;BMP280;71113;43.092;-89.268;2024-02-26T11:28:19;97595.59;;;16.44
78369;BMP280;71113;43.092;-89.268;2024-02-26T11:30:47;97596.34;;;16.53
78369;BMP280;71113;43.092;-89.268;2024-02-26T11:33:15;97596.63;;;16.60
78369;BMP280;71113;43.092;-89.268;2024-02-26T11:35:42;97600.03;;;16.69
78369;BMP280;71113;43.092;-89.268;2024-02-26T11:38:08;97599.19;;;16.78
78369;BMP280;71113;43.092;-89.268;2024-02-26T11:40:43;97594.50;;;16.83
78369;BMP280;71113;43.092;-89.268;2024-02-26T11:43:10;97582.72;;;16.89
78369;BMP280;71113;43.092;-89.268;2024-02-26T11:48:14;97586.81;;;16.99
78369;BMP280;71113;43.092;-89.268;2024-02-26T11:50:46;97579.94;;;17.07
78369;BMP280;71113;43.092;-89.268;2024-02-26T11:53:30;97577.91;;;17.12
78369;BMP280;71113;43.092;-89.268;2024-02-26T11:58:47;97573.78;;;17.02
78369;BMP280;71113;43.092;-89.268;2024-02-26T12:01:40;97572.44;;;16.96
78369;BMP280;71113;43.092;-89.268;2024-02-26T12:04:26;97565.94;;;16.94
78369;BMP280;71113;43.092;-89.268;2024-02-26T12:07:00;97568.56;;;16.94
78369;BMP280;71113;43.092;-89.268;2024-02-26T12:09:41;97564.22;;;16.98
78369;BMP280;71113;43.092;-89.268;2024-02-26T12:12:11;97569.69;;;17.14
78369;BMP280;71113;43.092;-89.268;2024-02-26T12:14:52;97566.53;;;17.20
78369;BMP280;71113;43.092;-89.268;2024-02-26T12:17:23;97566.41;;;17.17
78369;BMP280;71113;43.092;-89.268;2024-02-26T12:19:49;97571.06;;;17.11
78369;BMP280;71113;43.092;-89.268;2024-02-26T12:22:17;97582.28;;;17.08
78369;BMP280;71113;43.092;-89.268;2024-02-26T12:24:43;97579.16;;;17.06
78369;BMP280;71113;43.092;-89.268;2024-02-26T12:27:09;97578.44;;;17.06
78369;BMP280;71113;43.092;-89.268;2024-02-26T12:29:35;97578.72;;;17.04
78369;BMP280;71113;43.092;-89.268;2024-02-26T12:32:02;97580.59;;;17.03
78369;BMP280;71113;43.092;-89.268;2024-02-26T12:34:28;97577.19;;;17.03
78369;BMP280;71113;43.092;-89.268;2024-02-26T12:36:54;97574.09;;;17.01
78369;BMP280;71113;43.092;-89.268;2024-02-26T12:39:21;97578.72;;;17.04
78369;BMP280;71113;43.092;-89.268;2024-02-26T12:41:47;97583.81;;;17.09
78369;BMP280;71113;43.092;-89.268;2024-02-26T12:44:16;97585.59;;;17.17
78369;BMP280;71113;43.092;-89.268;2024-02-26T12:46:42;97590.19;;;17.29
78369;BMP280;71113;43.092;-89.268;2024-02-26T12:49:08;97586.56;;;17.33
78369;BMP280;71113;43.092;-89.268;2024-02-26T12:51:40;97590.19;;;17.29
78369;BMP280;71113;43.092;-89.268;2024-02-26T12:54:07;97585.13;;;17.24
78369;BMP280;71113;43.092;-89.268;2024-02-26T12:56:34;97587.28;;;17.22
78369;BMP280;71113;43.092;-89.268;2024-02-26T12:59:00;97574.44;;;17.20
78369;BMP280;71113;43.092;-89.268;2024-02-26T13:01:27;97574.75;;;17.19
78369;BMP280;71113;43.092;-89.268;2024-02-26T13:03:54;97573.97;;;17.18
78369;BMP280;71113;43.092;-89.268;2024-02-26T13:06:20;97581.88;;;17.18
78369;BMP280;71113;43.092;-89.268;2024-02-26T13:08:49;97590.88;;;17.17
78369;BMP280;71113;43.092;-89.268;2024-02-26T13:11:22;97586.38;;;17.18
78369;BMP280;71113;43.092;-89.268;2024-02-26T13:13:48;97582.97;;;17.17
78369;BMP280;71113;43.092;-89.268;2024-02-26T13:16:15;97575.06;;;17.17
78369;BMP280;71113;43.092;-89.268;2024-02-26T13:18:42;97575.41;;;17.16
78369;BMP280;71113;43.092;-89.268;2024-02-26T13:21:13;97584.06;;;17.16
78369;BMP280;71113;43.092;-89.268;2024-02-26T13:23:42;97583.28;;;17.16
78369;BMP280;71113;43.092;-89.268;2024-02-26T13:26:12;97572.44;;;17.17
78369;BMP280;71113;43.092;-89.268;2024-02-26T13:28:41;97572.88;;;17.19
78369;BMP280;71113;43.092;-89.268;2024-02-26T13:31:08;97573.31;;;17.21
78369;BMP280;71113;43.092;-89.268;2024-02-26T13:33:34;97574.88;;;17.22
78369;BMP280;71113;43.092;-89.268;2024-02-26T13:36:00;97570.06;;;17.24
78369;BMP280;71113;43.092;-89.268;2024-02-26T13:38:27;97583.25;;;17.24
78369;BMP280;71113;43.092;-89.268;2024-02-26T13:40:56;97581.38;;;17.25
78369;BMP280;71113;43.092;-89.268;2024-02-26T13:43:22;97575.75;;;17.26
78369;BMP280;71113;43.092;-89.268;2024-02-26T13:45:48;97571.63;;;17.25
78369;BMP280;71113;43.092;-89.268;2024-02-26T13:48:14;97574.69;;;17.27